YYC weather

Calgary International Airport
Calgary, Alberta, Canada

Public forecast

Using degrees Celsius for public forecast. Weather courtesy of forecast.io.

Current aviation weather report (METAR) for Calgary International Airport

Retrieved 2019/10/20 01:00 UTC (53 minutes ago):

CYYC 200100Z 26006KT 220V280 20SM FEW025TCU FEW075 SCT180 03/M02 A2960 RMK TCU1AC1AC1 TCU NE-SW + DIST SH S-SW SLP060

Aviation forecast (TAF) for Calgary International Airport

Retrieved 2019-10-20 03:42 UTC (0 seconds ago):

TAF CYYC 200238Z 2003/2024 26005KT P6SM FEW090 SCT120 SCT240 FM200600 30006KT P6SM FEW120 SCT240 FM201000 29006KT P6SM SKC FM202100 19008KT P6SM FEW060 SCT100 BKN220 RMK NXT FCST BY 200600Z